KCLK/CLK METAR and TAF weather

Enter ICAO airport designator
Station Type Date Time Source
KCLK METAR 2020/03/31 21:55 UTC NOAA

KCLK 312155Z AUTO 14006KT 10SM CLR 17/06 A3004 RMK AO2


Station Type Date Time Source
KCLK Decoded METAR 2020/03/31 21:55 UTC NOAA

Clinton, Clinton Regional Airport, OK, United States (KCLK) 35-32-17N 098-55-17W
Mar 31, 2020 - 05:55 PM EDT / 2020.03.31 2155 UTC
Wind: from the SE (140 degrees) at 7 MPH (6 KT):0
Visibility: 10 mile(s):0
Sky conditions: clear
Temperature: 62 F (17 C)
Dew Point: 42 F (6 C)
Relative Humidity: 48%
Pressure (altimeter): 30.04 in. Hg (1017 hPa)
ob: KCLK 312155Z AUTO 14006KT 10SM CLR 17/06 A3004 RMK AO2
cycle: 22

Station Type Date Time Source
KCLK TAF UTC NOAA

Error!

Example: see airport list